createdAt,value
2018-09-10T00:00:26.478Z,48.68
2018-09-10T00:02:54.837Z,48.13
2018-09-10T00:05:23.151Z,48.13
2018-09-10T00:07:51.522Z,48.00
2018-09-10T00:10:19.858Z,48.45
2018-09-10T00:12:48.251Z,48.77
2018-09-10T00:15:16.606Z,48.70
2018-09-10T00:17:44.927Z,48.57
2018-09-10T00:20:13.315Z,48.12
2018-09-10T00:22:41.646Z,48.86
2018-09-10T00:25:10.030Z,48.38
2018-09-10T00:27:38.447Z,49.06
2018-09-10T00:30:06.877Z,49.23
2018-09-10T00:32:35.292Z,48.11
2018-09-10T00:35:04.699Z,48.13
2018-09-10T00:37:33.015Z,48.75
2018-09-10T00:40:01.366Z,48.14
2018-09-10T00:42:29.722Z,48.22
2018-09-10T00:44:58.078Z,48.13
2018-09-10T00:47:26.388Z,49.09
2018-09-10T00:50:01.269Z,48.52
2018-09-10T00:52:29.609Z,48.93
2018-09-10T00:54:57.962Z,48.62
2018-09-10T00:57:26.258Z,48.79
2018-09-10T00:59:54.670Z,48.96
2018-09-10T01:02:23.042Z,48.85
2018-09-10T01:04:51.391Z,48.42
2018-09-10T01:07:19.723Z,48.31
2018-09-10T01:09:48.020Z,49.14
2018-09-10T01:12:16.280Z,49.06
2018-09-10T01:14:44.559Z,49.29
2018-09-10T01:17:12.843Z,49.20
2018-09-10T01:19:41.158Z,49.06
2018-09-10T01:22:09.423Z,49.16
2018-09-10T01:24:38.645Z,48.67
2018-09-10T01:27:06.901Z,49.14
2018-09-10T01:29:35.349Z,49.37
2018-09-10T01:32:03.627Z,49.10
2018-09-10T01:34:36.994Z,49.14
2018-09-10T01:37:05.306Z,48.46
2018-09-10T01:39:33.715Z,49.15
2018-09-10T01:42:02.014Z,48.45
2018-09-10T01:44:30.291Z,48.47
2018-09-10T01:46:58.566Z,48.46
2018-09-10T01:49:26.869Z,48.39
2018-09-10T01:51:55.150Z,49.20
2018-09-10T01:54:23.430Z,48.40
2018-09-10T01:56:51.722Z,48.61
2018-09-10T01:59:19.973Z,49.06
2018-09-10T02:01:49.007Z,48.71
2018-09-10T02:04:17.295Z,49.12
2018-09-10T02:06:45.576Z,48.05
2018-09-10T02:09:13.931Z,48.98
2018-09-10T02:11:42.516Z,48.31
2018-09-10T02:14:10.774Z,48.43
2018-09-10T02:16:39.050Z,48.64
2018-09-10T02:19:07.379Z,49.25
2018-09-10T02:21:35.680Z,49.26
2018-09-10T02:24:03.987Z,48.53
2018-09-10T02:26:32.254Z,49.35
2018-09-10T02:29:00.543Z,48.58
2018-09-10T02:31:28.970Z,49.43
2018-09-10T02:33:57.258Z,48.73
2018-09-10T02:36:25.549Z,49.50
2018-09-10T02:38:53.830Z,48.95
2018-09-10T02:41:22.110Z,48.83
2018-09-10T02:43:50.370Z,48.74
2018-09-10T02:46:18.679Z,48.93
2018-09-10T02:48:47.002Z,49.41
2018-09-10T02:51:15.307Z,49.68
2018-09-10T02:53:44.482Z,49.66
2018-09-10T02:56:12.783Z,49.14
2018-09-10T02:58:41.095Z,49.56
2018-09-10T03:01:09.494Z,49.33
2018-09-10T03:03:38.026Z,49.68
2018-09-10T03:06:06.414Z,49.59
2018-09-10T03:08:34.667Z,49.81
2018-09-10T03:11:02.982Z,48.92
2018-09-10T03:13:31.278Z,49.17
2018-09-10T03:15:59.603Z,49.17
2018-09-10T03:18:27.907Z,49.23
2018-09-10T03:20:56.179Z,49.71
2018-09-10T03:23:24.535Z,49.66
2018-09-10T03:25:52.842Z,49.68
2018-09-10T03:28:21.102Z,49.70
2018-09-10T03:30:49.379Z,49.73
2018-09-10T03:33:17.661Z,49.68
2018-09-10T03:35:46.343Z,49.38
2018-09-10T03:38:14.645Z,49.63
2018-09-10T03:40:42.910Z,48.90
2018-09-10T03:43:11.178Z,49.23
2018-09-10T03:45:39.483Z,49.15
2018-09-10T03:48:08.254Z,49.15
2018-09-10T03:50:36.565Z,49.09
2018-09-10T03:53:04.934Z,49.79
2018-09-10T03:55:33.233Z,49.26
2018-09-10T03:58:01.506Z,49.64
2018-09-10T04:00:29.767Z,50.21
2018-09-10T04:02:58.074Z,50.31
2018-09-10T04:05:26.340Z,50.23
2018-09-10T04:07:54.642Z,49.44
2018-09-10T04:10:22.903Z,49.50
2018-09-10T04:12:51.199Z,49.45
2018-09-10T04:15:19.710Z,49.64
2018-09-10T04:17:48.082Z,49.57
2018-09-10T04:20:16.337Z,50.33
2018-09-10T04:22:44.610Z,49.86
2018-09-10T04:25:12.898Z,50.60
2018-09-10T04:27:41.168Z,49.76
2018-09-10T04:30:14.041Z,50.57
2018-09-10T04:32:42.335Z,49.82
2018-09-10T04:35:11.255Z,50.68
2018-09-10T04:37:40.023Z,50.10
2018-09-10T04:40:08.471Z,50.38
2018-09-10T04:42:36.898Z,50.04
2018-09-10T04:45:05.702Z,50.92
2018-09-10T04:47:34.080Z,50.56
2018-09-10T04:50:02.546Z,51.23
2018-09-10T04:52:30.815Z,50.26
2018-09-10T04:54:59.107Z,50.53
2018-09-10T04:57:27.407Z,51.09
2018-09-10T04:59:55.800Z,50.96
2018-09-10T05:02:24.122Z,50.31
2018-09-10T05:04:52.602Z,50.51
2018-09-10T05:07:20.964Z,51.22
2018-09-10T05:09:49.291Z,50.52
2018-09-10T05:12:17.606Z,50.64
2018-09-10T05:14:45.858Z,51.33
2018-09-10T05:17:14.184Z,51.29
2018-09-10T05:19:42.451Z,51.09
2018-09-10T05:22:10.751Z,50.81
2018-09-10T05:24:39.075Z,50.62
2018-09-10T05:27:07.391Z,50.98
2018-09-10T05:29:35.734Z,50.75
2018-09-10T05:32:04.009Z,50.60
2018-09-10T05:34:32.279Z,50.62
2018-09-10T05:37:00.590Z,50.98
2018-09-10T05:39:28.907Z,50.94
2018-09-10T05:41:57.218Z,51.12
2018-09-10T05:44:25.522Z,50.30
2018-09-10T05:46:53.888Z,51.12
2018-09-10T05:49:22.186Z,51.12
2018-09-10T05:51:50.486Z,50.54
2018-09-10T05:54:18.770Z,50.64
2018-09-10T05:56:47.087Z,50.87
2018-09-10T05:59:15.351Z,50.55
2018-09-10T06:01:43.768Z,50.97
2018-09-10T06:04:12.043Z,51.33
2018-09-10T06:06:40.318Z,51.25
2018-09-10T06:09:08.635Z,51.29
2018-09-10T06:11:37.031Z,50.58
2018-09-10T06:14:05.365Z,51.41
2018-09-10T06:16:33.868Z,51.38
2018-09-10T06:19:02.202Z,50.24
2018-09-10T06:21:30.449Z,50.52
2018-09-10T06:23:59.954Z,51.41
2018-09-10T06:26:28.242Z,51.37
2018-09-10T06:28:56.596Z,51.23
2018-09-10T06:31:24.885Z,51.42
2018-09-10T06:33:54.354Z,50.91
2018-09-10T06:36:22.684Z,51.25
2018-09-10T06:38:50.963Z,50.78
2018-09-10T06:41:19.222Z,50.31
2018-09-10T06:43:47.535Z,51.37
2018-09-10T06:46:15.894Z,51.14
2018-09-10T06:48:44.165Z,50.39
2018-09-10T06:51:12.463Z,50.75
2018-09-10T06:53:40.745Z,50.78
2018-09-10T06:56:09.039Z,51.11
2018-09-10T06:58:37.355Z,51.20
2018-09-10T07:01:05.726Z,50.33
2018-09-10T07:03:34.010Z,51.02
2018-09-10T07:06:02.299Z,50.43
2018-09-10T07:08:31.248Z,51.12
2018-09-10T07:10:59.499Z,50.26
2018-09-10T07:13:27.781Z,50.55
2018-09-10T07:15:56.067Z,50.16
2018-09-10T07:18:24.371Z,51.07
2018-09-10T07:20:52.810Z,50.55
2018-09-10T07:23:21.322Z,50.54
2018-09-10T07:25:49.579Z,50.06
2018-09-10T07:28:17.892Z,50.77
2018-09-10T07:30:46.148Z,50.32
2018-09-10T07:33:14.459Z,50.21
2018-09-10T07:35:43.322Z,50.60
2018-09-10T07:38:11.610Z,51.00
2018-09-10T07:40:39.959Z,50.61
2018-09-10T07:43:08.331Z,50.98
2018-09-10T07:45:36.609Z,51.03
2018-09-10T07:48:05.187Z,50.34
2018-09-10T07:50:33.442Z,50.99
2018-09-10T07:53:01.722Z,50.91
2018-09-10T07:55:30.045Z,50.89
2018-09-10T07:57:58.317Z,50.26
2018-09-10T08:00:26.623Z,50.35
2018-09-10T08:02:54.955Z,50.89
2018-09-10T08:05:23.290Z,50.01
2018-09-10T08:07:51.576Z,50.06
2018-09-10T08:10:19.945Z,50.04
2018-09-10T08:12:48.239Z,50.61
2018-09-10T08:15:16.614Z,50.09
2018-09-10T08:17:44.874Z,50.30
2018-09-10T08:20:13.479Z,50.79
2018-09-10T08:22:41.755Z,50.33
2018-09-10T08:25:10.153Z,50.39
2018-09-10T08:27:38.466Z,50.29
2018-09-10T08:30:07.755Z,50.00
2018-09-10T08:32:36.946Z,50.00
2018-09-10T08:35:05.303Z,50.19
2018-09-10T08:37:33.571Z,50.62
2018-09-10T08:40:01.886Z,49.86
2018-09-10T08:42:30.136Z,49.77
2018-09-10T08:44:58.450Z,49.88
2018-09-10T08:47:26.733Z,50.54
2018-09-10T08:49:55.040Z,49.89
2018-09-10T08:52:23.303Z,49.84
2018-09-10T08:54:51.933Z,50.74
2018-09-10T08:57:19.941Z,50.78
2018-09-10T08:59:48.226Z,50.49
2018-09-10T09:02:16.531Z,49.96
2018-09-10T09:04:44.843Z,50.78
2018-09-10T09:07:13.131Z,50.68
2018-09-10T09:09:41.430Z,50.14
2018-09-10T09:12:10.087Z,51.36
2018-09-10T09:14:38.364Z,49.87
2018-09-10T09:17:06.714Z,50.79
2018-09-10T09:19:35.001Z,50.56
2018-09-10T09:22:03.298Z,50.41
2018-09-10T09:24:31.563Z,49.56
2018-09-10T09:26:59.846Z,50.03
2018-09-10T09:29:28.120Z,49.95
2018-09-10T09:31:56.401Z,49.77
2018-09-10T09:34:27.648Z,50.37
2018-09-10T09:39:05.240Z,50.03
2018-09-10T09:41:38.734Z,50.47
2018-09-10T09:44:12.095Z,50.68
2018-09-10T09:46:40.350Z,49.89
2018-09-10T09:49:08.731Z,49.83
2018-09-10T09:51:37.118Z,50.67
2018-09-10T09:54:05.430Z,50.42
2018-09-10T09:56:33.689Z,49.44
2018-09-10T09:59:01.991Z,50.09
2018-09-10T10:01:35.351Z,50.20
2018-09-10T10:04:10.743Z,50.18
2018-09-10T10:06:38.957Z,49.62
2018-09-10T10:09:09.435Z,50.40
2018-09-10T10:11:38.095Z,50.48
2018-09-10T10:14:06.964Z,50.43
2018-09-10T10:16:35.358Z,50.59
2018-09-10T10:19:03.702Z,49.98
2018-09-10T10:21:31.970Z,50.40
2018-09-10T10:24:00.373Z,50.22
2018-09-10T10:26:28.646Z,49.78
2018-09-10T10:28:56.999Z,50.33
2018-09-10T10:31:25.299Z,50.64
2018-09-10T10:33:53.586Z,50.22
2018-09-10T10:36:21.918Z,49.80
2018-09-10T10:38:50.302Z,49.71
2018-09-10T10:41:18.662Z,49.72
2018-09-10T10:43:47.002Z,49.67
2018-09-10T10:51:14.352Z,49.56
2018-09-10T10:53:43.099Z,49.76
2018-09-10T10:56:11.463Z,50.24
2018-09-10T10:58:39.722Z,49.83
2018-09-10T11:01:08.004Z,49.93
2018-09-10T11:03:36.340Z,49.82
2018-09-10T11:06:04.646Z,49.67
2018-09-10T11:08:33.018Z,49.14
2018-09-10T11:11:01.430Z,49.58
2018-09-10T11:13:29.697Z,48.96
2018-09-10T11:15:57.997Z,49.52
2018-09-10T11:18:26.246Z,48.92
2018-09-10T11:20:54.622Z,48.98
2018-09-10T11:23:22.907Z,49.38
2018-09-10T11:25:51.286Z,49.41
2018-09-10T11:28:19.638Z,49.36
2018-09-10T11:30:48.146Z,49.22
2018-09-10T11:33:16.414Z,49.19
2018-09-10T11:35:44.942Z,48.55
2018-09-10T11:38:13.190Z,49.19
2018-09-10T11:40:41.489Z,48.44
2018-09-10T11:43:09.791Z,48.18
2018-09-10T11:45:38.092Z,49.13
2018-09-10T11:48:06.534Z,49.16
2018-09-10T11:50:35.226Z,48.91
2018-09-10T11:53:03.491Z,48.25
2018-09-10T11:55:31.808Z,48.64
2018-09-10T11:58:00.162Z,48.62
2018-09-10T12:00:28.490Z,48.98
2018-09-10T12:02:57.034Z,48.11
2018-09-10T12:05:25.431Z,48.92
2018-09-10T12:07:53.686Z,48.11
2018-09-10T12:10:21.990Z,48.19
2018-09-10T12:12:50.366Z,48.75
2018-09-10T12:15:18.727Z,48.45
2018-09-10T12:17:47.126Z,48.15
2018-09-10T12:20:15.483Z,47.97
2018-09-10T12:22:43.762Z,48.10
2018-09-10T12:25:12.059Z,48.46
2018-09-10T12:27:40.430Z,48.47
2018-09-10T12:30:08.706Z,48.98
2018-09-10T12:32:37.036Z,48.94
2018-09-10T12:35:05.359Z,49.18
2018-09-10T12:37:33.727Z,48.81
2018-09-10T12:40:02.080Z,48.64
2018-09-10T12:42:30.366Z,48.59
2018-09-10T12:44:58.708Z,49.60
2018-09-10T12:47:27.019Z,48.48
2018-09-10T12:49:56.307Z,49.30
2018-09-10T12:52:24.654Z,48.60
2018-09-10T12:54:52.915Z,48.72
2018-09-10T12:57:21.210Z,48.43
2018-09-10T12:59:49.519Z,49.09
2018-09-10T13:02:17.919Z,48.47
2018-09-10T13:04:46.265Z,48.21
2018-09-10T13:07:14.566Z,48.30
2018-09-10T13:09:42.922Z,48.84
2018-09-10T13:12:11.235Z,48.45
2018-09-10T13:14:39.623Z,48.43
2018-09-10T13:17:07.906Z,48.26
2018-09-10T13:19:36.202Z,48.99
2018-09-10T13:22:04.544Z,48.38
2018-09-10T13:24:32.887Z,48.34
2018-09-10T13:27:01.187Z,48.74
2018-09-10T13:29:30.035Z,47.99
2018-09-10T13:31:58.347Z,47.98
2018-09-10T13:34:26.615Z,48.18
2018-09-10T13:36:54.891Z,48.73
2018-09-10T13:39:23.178Z,49.00
2018-09-10T13:41:51.459Z,49.35
2018-09-10T13:44:19.741Z,49.31
2018-09-10T13:46:48.047Z,49.52
2018-09-10T13:49:16.422Z,49.88
2018-09-10T13:51:44.695Z,49.97
2018-09-10T13:54:12.992Z,49.41
2018-09-10T13:56:41.262Z,50.31
2018-09-10T13:59:09.511Z,50.73
2018-09-10T14:01:37.862Z,50.81
2018-09-10T14:04:06.205Z,50.25
2018-09-10T14:06:34.514Z,50.98
2018-09-10T14:09:03.032Z,50.44
2018-09-10T14:11:31.358Z,50.62
2018-09-10T14:13:59.642Z,51.29
2018-09-10T14:16:27.975Z,51.34
2018-09-10T14:18:56.270Z,50.81
2018-09-10T14:21:24.583Z,50.78
2018-09-10T14:23:52.875Z,51.05
2018-09-10T14:26:21.195Z,50.51
2018-09-10T14:28:49.728Z,50.78
2018-09-10T14:31:18.032Z,50.53
2018-09-10T14:33:46.542Z,51.07
2018-09-10T14:36:15.428Z,50.22
2018-09-10T14:38:43.998Z,50.19
2018-09-10T14:41:12.540Z,50.62
2018-09-10T14:43:41.064Z,50.48
2018-09-10T14:46:09.354Z,50.28
2018-09-10T14:48:37.715Z,50.25
2018-09-10T14:51:06.354Z,49.63
2018-09-10T14:53:34.738Z,49.00
2018-09-10T14:56:03.237Z,47.99
2018-09-10T14:58:31.838Z,48.49
2018-09-10T15:01:00.066Z,48.39
2018-09-10T15:03:28.477Z,49.12
2018-09-10T15:05:56.948Z,48.81
2018-09-10T15:08:25.223Z,48.79
2018-09-10T15:10:53.653Z,48.81
2018-09-10T15:13:21.983Z,49.11
2018-09-10T15:15:50.463Z,48.67
2018-09-10T15:18:18.888Z,48.40
2018-09-10T15:20:47.127Z,48.79
2018-09-10T15:23:15.494Z,48.79
2018-09-10T15:25:43.864Z,48.88
2018-09-10T15:28:12.304Z,49.77
2018-09-10T15:30:40.683Z,49.86
2018-09-10T15:33:08.971Z,50.10
2018-09-10T15:35:37.278Z,50.04
2018-09-10T15:38:05.674Z,49.64
2018-09-10T15:40:34.089Z,49.31
2018-09-10T15:43:02.572Z,49.75
2018-09-10T15:45:30.874Z,49.81
2018-09-10T15:47:59.175Z,49.71
2018-09-10T15:50:27.539Z,49.43
2018-09-10T15:52:55.915Z,50.33
2018-09-10T15:55:24.330Z,50.93
2018-09-10T15:57:52.690Z,49.95
2018-09-10T16:00:20.975Z,49.82
2018-09-10T16:02:49.354Z,50.42
2018-09-10T16:05:17.787Z,49.53
2018-09-10T16:07:46.122Z,49.59
2018-09-10T16:10:14.483Z,49.68
2018-09-10T16:12:43.351Z,49.71
2018-09-10T16:15:11.624Z,49.26
2018-09-10T16:17:39.963Z,48.98
2018-09-10T16:20:08.329Z,49.44
2018-09-10T16:22:36.647Z,49.34
2018-09-10T16:25:04.965Z,49.27
2018-09-10T16:27:33.355Z,48.40
2018-09-10T16:30:01.587Z,48.21
2018-09-10T16:32:29.862Z,48.57
2018-09-10T16:34:58.163Z,50.13
2018-09-10T16:37:27.156Z,49.94
2018-09-10T16:39:55.494Z,51.89
2018-09-10T16:42:23.775Z,52.31
2018-09-10T16:44:52.110Z,52.93
2018-09-10T16:47:20.487Z,53.27
2018-09-10T16:49:48.851Z,52.38
2018-09-10T16:52:17.142Z,53.82
2018-09-10T16:54:45.772Z,53.54
2018-09-10T16:57:14.018Z,55.65
2018-09-10T16:59:42.350Z,57.62
2018-09-10T17:02:10.740Z,55.37
2018-09-10T17:04:39.050Z,55.84
2018-09-10T17:07:07.434Z,55.47
2018-09-10T17:09:35.778Z,57.19
2018-09-10T17:12:04.115Z,57.04
2018-09-10T17:14:35.491Z,58.39
2018-09-10T17:17:04.055Z,57.98
2018-09-10T17:19:32.376Z,58.07
2018-09-10T17:22:00.721Z,57.32
2018-09-10T17:24:29.024Z,57.41
2018-09-10T17:26:57.294Z,55.74
2018-09-10T17:29:25.591Z,55.14
2018-09-10T17:31:53.859Z,54.81
2018-09-10T17:34:22.286Z,54.28
2018-09-10T17:36:50.694Z,53.75
2018-09-10T17:39:19.446Z,53.68
2018-09-10T17:41:47.716Z,53.62
2018-09-10T17:44:16.178Z,54.39
2018-09-10T17:46:44.498Z,54.07
2018-09-10T17:49:12.848Z,53.58
2018-09-10T17:51:41.192Z,53.70
2018-09-10T17:54:09.562Z,53.42
2018-09-10T17:56:37.838Z,53.85
2018-09-10T17:59:06.231Z,53.75
2018-09-10T18:01:34.533Z,53.20
2018-09-10T18:04:02.886Z,52.93
2018-09-10T18:06:31.186Z,53.08
2018-09-10T18:08:59.510Z,53.08
2018-09-10T18:11:27.806Z,53.19
2018-09-10T18:13:56.178Z,53.00
2018-09-10T18:16:24.517Z,52.65
2018-09-10T18:18:52.890Z,52.66
2018-09-10T18:21:21.898Z,51.70
2018-09-10T18:23:50.295Z,52.04
2018-09-10T18:26:18.598Z,51.91
2018-09-10T18:28:46.979Z,51.75
2018-09-10T18:31:15.278Z,51.33
2018-09-10T18:33:43.614Z,51.43
2018-09-10T18:36:11.975Z,51.03
2018-09-10T18:38:40.266Z,50.93
2018-09-10T18:41:08.673Z,51.35
2018-09-10T18:43:36.995Z,51.81
2018-09-10T18:46:05.278Z,51.82
2018-09-10T18:48:33.861Z,51.82
2018-09-10T18:51:02.261Z,51.74
2018-09-10T18:53:30.565Z,51.84
2018-09-10T18:55:58.922Z,51.06
2018-09-10T18:58:27.438Z,51.02
2018-09-10T19:00:55.992Z,51.27
2018-09-10T19:03:24.356Z,51.00
2018-09-10T19:05:52.784Z,51.82
2018-09-10T19:08:21.131Z,50.79
2018-09-10T19:10:49.470Z,51.78
2018-09-10T19:13:17.782Z,51.82
2018-09-10T19:15:46.082Z,50.92
2018-09-10T19:18:14.432Z,51.93
2018-09-10T19:20:42.753Z,51.07
2018-09-10T19:23:11.070Z,51.42
2018-09-10T19:25:39.438Z,51.72
2018-09-10T19:28:08.017Z,51.51
2018-09-10T19:30:36.516Z,51.02
2018-09-10T19:33:04.994Z,51.74
2018-09-10T19:35:33.578Z,51.13
2018-09-10T19:38:02.006Z,51.47
2018-09-10T19:40:30.338Z,51.77
2018-09-10T19:42:59.682Z,51.11
2018-09-10T19:45:28.015Z,51.17
2018-09-10T19:47:56.363Z,51.72
2018-09-10T19:50:24.698Z,51.70
2018-09-10T19:52:53.066Z,50.94
2018-09-10T19:55:21.462Z,51.19
2018-09-10T19:57:49.766Z,50.77
2018-09-10T20:00:18.071Z,50.83
2018-09-10T20:02:46.466Z,51.65
2018-09-10T20:05:14.814Z,51.28
2018-09-10T20:07:43.207Z,51.33
2018-09-10T20:10:11.575Z,51.03
2018-09-10T20:12:39.994Z,51.08
2018-09-10T20:15:08.431Z,51.68
2018-09-10T20:17:36.875Z,51.35
2018-09-10T20:20:06.194Z,52.05
2018-09-10T20:22:34.475Z,51.33
2018-09-10T20:25:02.794Z,52.11
2018-09-10T20:27:31.311Z,51.05
2018-09-10T20:29:59.614Z,52.07
2018-09-10T20:32:27.907Z,52.13
2018-09-10T20:34:56.187Z,52.25
2018-09-10T20:37:24.502Z,51.59
2018-09-10T20:39:52.784Z,52.39
2018-09-10T20:42:21.106Z,51.56
2018-09-10T20:44:49.513Z,52.35
2018-09-10T20:47:17.907Z,52.24
2018-09-10T20:49:46.288Z,51.63
2018-09-10T20:52:14.680Z,51.86
2018-09-10T20:54:43.040Z,51.48
2018-09-10T20:57:11.354Z,51.57
2018-09-10T20:59:39.673Z,51.53
2018-09-10T21:02:08.114Z,51.58
2018-09-10T21:04:36.402Z,52.43
2018-09-10T21:07:05.326Z,51.55
2018-09-10T21:09:33.694Z,52.07
2018-09-10T21:12:01.979Z,51.73
2018-09-10T21:14:30.255Z,51.65
2018-09-10T21:16:58.651Z,52.49
2018-09-10T21:19:27.008Z,52.52
2018-09-10T21:21:55.475Z,51.67
2018-09-10T21:24:23.881Z,51.51
2018-09-10T21:26:52.281Z,52.51
2018-09-10T21:29:20.614Z,52.17
2018-09-10T21:31:49.026Z,52.06
2018-09-10T21:34:17.402Z,52.51
2018-09-10T21:36:45.718Z,52.87
2018-09-10T21:39:14.010Z,52.39
2018-09-10T21:41:42.310Z,52.11
2018-09-10T21:44:10.918Z,51.92
2018-09-10T21:46:39.305Z,52.13
2018-09-10T21:49:08.374Z,51.77
2018-09-10T21:51:36.654Z,51.69
2018-09-10T21:54:04.910Z,52.51
2018-09-10T21:56:33.178Z,51.85
2018-09-10T21:59:01.554Z,52.62
2018-09-10T22:01:29.926Z,51.71
2018-09-10T22:03:58.353Z,51.67
2018-09-10T22:06:26.723Z,52.05
2018-09-10T22:08:55.034Z,52.52
2018-09-10T22:11:23.358Z,51.72
2018-09-10T22:13:51.666Z,51.70
2018-09-10T22:16:20.010Z,51.98
2018-09-10T22:18:48.410Z,51.95
2018-09-10T22:21:16.709Z,52.44
2018-09-10T22:23:44.983Z,51.74
2018-09-10T22:26:13.266Z,52.53
2018-09-10T22:28:41.646Z,52.11
2018-09-10T22:31:09.955Z,52.03
2018-09-10T22:33:38.243Z,52.60
2018-09-10T22:36:06.525Z,51.75
2018-09-10T22:38:34.926Z,52.41
2018-09-10T22:41:03.286Z,51.72
2018-09-10T22:43:31.668Z,52.51
2018-09-10T22:46:00.015Z,51.99
2018-09-10T22:48:28.326Z,52.50
2018-09-10T22:50:56.719Z,52.46
2018-09-10T22:53:25.066Z,51.67
2018-09-10T22:55:53.431Z,52.07
2018-09-10T22:58:21.722Z,52.02
2018-09-10T23:00:50.105Z,52.49
2018-09-10T23:03:18.474Z,52.47
2018-09-10T23:05:46.726Z,51.69
2018-09-10T23:08:15.020Z,52.26
2018-09-10T23:10:43.293Z,52.45
2018-09-10T23:13:11.579Z,51.72
2018-09-10T23:15:39.834Z,52.07
2018-09-10T23:18:08.130Z,52.38
2018-09-10T23:20:36.402Z,51.92
2018-09-10T23:23:04.842Z,51.57
2018-09-10T23:25:33.113Z,52.24
2018-09-10T23:28:01.382Z,51.79
2018-09-10T23:30:29.726Z,52.56
2018-09-10T23:32:58.114Z,51.79
2018-09-10T23:35:26.362Z,52.49
2018-09-10T23:37:54.637Z,52.49
2018-09-10T23:40:22.898Z,52.22
2018-09-10T23:42:51.227Z,52.30
2018-09-10T23:45:19.486Z,52.42
2018-09-10T23:47:47.926Z,51.81
2018-09-10T23:50:16.222Z,51.66
2018-09-10T23:52:44.501Z,52.05
2018-09-10T23:55:12.773Z,51.60
2018-09-10T23:57:41.072Z,52.65
